Time;durP1;ratioP1;P1;durP2;ratioP2;P2;SDS_P1;SDS_P2;PMS_P1;PMS_P2;Temp;Humidity;BMP_temperature;BMP_pressure;BME280_temperature;BME280_humidity;BME280_pressure;Samples;Min_cycle;Max_cycle;Signal;HPM_P1;HPM_P2
2023/09/09 00:03:16;;;;;;;9.52;5.88;;;;;;;;;;10444089;28;20025;-71
2023/09/09 00:08:18;;;;;;;8.45;6.43;;;;;;;;;;10444372;28;20307;-71
2023/09/09 00:13:19;;;;;;;12.73;6.28;;;;;;;;;;10447038;28;20028;-71
2023/09/09 00:18:19;;;;;;;15.30;6.75;;;;;;;;;;10441807;28;20020;-71
2023/09/09 00:23:19;;;;;;;10.70;5.47;;;;;;;;;;10445872;28;20286;-71
2023/09/09 00:28:20;;;;;;;21.38;8.38;;;;;;;;;;10445945;28;20211;-71
2023/09/09 00:33:21;;;;;;;11.48;7.65;;;;;;;;;;10453206;28;20062;-71
2023/09/09 00:38:21;;;;;;;14.07;8.07;;;;;;;;;;10453260;28;20040;-71
2023/09/09 00:43:21;;;;;;;10.40;7.30;;;;;;;;;;10454362;28;20031;-72
2023/09/09 00:48:21;;;;;;;10.30;7.32;;;;;;;;;;10450647;28;20025;-73
2023/09/09 00:53:22;;;;;;;12.23;8.40;;;;;;;;;;10453472;28;20050;-71
2023/09/09 00:58:23;;;;;;;16.75;7.88;;;;;;;;;;10451852;28;20070;-71
2023/09/09 01:03:23;;;;;;;12.27;7.15;;;;;;;;;;10450650;28;20079;-73
2023/09/09 01:08:27;;;;;;;12.70;7.70;;;;;;;;;;10452331;28;20040;-71
2023/09/09 01:13:28;;;;;;;15.30;8.57;;;;;;;;;;10452070;28;20513;-71
2023/09/09 01:18:31;;;;;;;10.93;8.70;;;;;;;;;;10451891;28;20515;-71
2023/09/09 01:23:31;;;;;;;15.57;9.93;;;;;;;;;;10448210;28;20052;-71
2023/09/09 01:28:31;;;;;;;19.17;9.57;;;;;;;;;;10450958;28;20063;-71
2023/09/09 01:33:32;;;;;;;18.93;9.53;;;;;;;;;;10450207;28;20358;-71
2023/09/09 01:38:35;;;;;;;14.95;11.68;;;;;;;;;;10450312;28;20028;-70
2023/09/09 01:43:35;;;;;;;16.38;9.65;;;;;;;;;;10450701;28;20069;-71
2023/09/09 01:48:36;;;;;;;16.55;10.00;;;;;;;;;;10450671;28;20059;-71
2023/09/09 01:53:38;;;;;;;19.27;11.38;;;;;;;;;;10446121;28;20016;-71
2023/09/09 01:58:38;;;;;;;13.30;9.93;;;;;;;;;;10446050;28;20110;-71
2023/09/09 02:03:39;;;;;;;20.17;11.13;;;;;;;;;;10449843;28;20025;-73
2023/09/09 02:08:39;;;;;;;15.30;11.23;;;;;;;;;;10449540;28;20040;-73
2023/09/09 02:13:39;;;;;;;18.57;11.73;;;;;;;;;;10446572;28;20020;-72
2023/09/09 02:18:40;;;;;;;15.05;10.13;;;;;;;;;;10447262;28;20052;-71
2023/09/09 02:23:41;;;;;;;22.63;11.57;;;;;;;;;;10448481;28;20044;-71
2023/09/09 02:28:41;;;;;;;22.10;12.38;;;;;;;;;;10449298;28;20025;-71
2023/09/09 02:33:41;;;;;;;21.90;11.60;;;;;;;;;;10448367;28;20100;-71
2023/09/09 02:38:41;;;;;;;16.67;11.77;;;;;;;;;;10446698;28;20025;-70
2023/09/09 02:43:42;;;;;;;23.60;14.23;;;;;;;;;;10446951;28;20013;-73
2023/09/09 02:48:43;;;;;;;20.02;14.23;;;;;;;;;;10446345;28;20075;-73
2023/09/09 02:53:43;;;;;;;30.55;15.05;;;;;;;;;;10447212;28;20021;-79
2023/09/09 02:58:43;;;;;;;25.88;16.15;;;;;;;;;;10442130;28;20049;-74
2023/09/09 03:03:44;;;;;;;21.05;14.18;;;;;;;;;;10449264;28;20036;-70
2023/09/09 03:08:44;;;;;;;23.60;15.00;;;;;;;;;;10446817;28;20120;-70
2023/09/09 03:13:44;;;;;;;26.47;16.33;;;;;;;;;;10447285;28;20032;-71
2023/09/09 03:18:45;;;;;;;25.48;15.68;;;;;;;;;;10446514;28;20521;-70
2023/09/09 03:23:45;;;;;;;27.30;16.27;;;;;;;;;;10446622;28;20032;-72
2023/09/09 03:28:45;;;;;;;34.43;17.40;;;;;;;;;;10446606;28;20016;-72
2023/09/09 03:33:46;;;;;;;27.60;16.83;;;;;;;;;;10447486;28;20267;-70
2023/09/09 03:38:46;;;;;;;30.67;16.73;;;;;;;;;;10445677;28;20032;-70
2023/09/09 03:43:47;;;;;;;28.00;18.27;;;;;;;;;;10446691;28;20055;-69
2023/09/09 03:48:47;;;;;;;34.58;19.27;;;;;;;;;;10445063;28;20237;-70
2023/09/09 03:53:48;;;;;;;27.43;17.47;;;;;;;;;;10447731;28;20066;-70
2023/09/09 03:58:48;;;;;;;29.83;17.93;;;;;;;;;;10445370;28;20485;-70
2023/09/09 04:03:48;;;;;;;31.25;17.35;;;;;;;;;;10450438;28;20071;-70
2023/09/09 04:08:55;;;;;;;30.67;17.50;;;;;;;;;;10454165;28;20478;-70
2023/09/09 04:13:55;;;;;;;36.10;18.42;;;;;;;;;;10463038;28;20087;-70
2023/09/09 04:18:55;;;;;;;27.33;16.95;;;;;;;;;;10453428;28;20207;-70
2023/09/09 04:23:56;;;;;;;33.85;20.85;;;;;;;;;;10449322;28;20047;-70
2023/09/09 04:28:56;;;;;;;30.33;19.10;;;;;;;;;;10451519;28;20025;-70
2023/09/09 04:33:56;;;;;;;41.00;19.97;;;;;;;;;;10452405;28;20077;-70
2023/09/09 04:38:56;;;;;;;37.45;19.05;;;;;;;;;;10451677;28;20041;-71
2023/09/09 04:43:57;;;;;;;29.58;19.33;;;;;;;;;;10452544;28;20036;-72
2023/09/09 04:48:57;;;;;;;27.10;16.23;;;;;;;;;;10453512;28;20230;-72
2023/09/09 04:53:57;;;;;;;25.58;15.00;;;;;;;;;;10451746;28;20037;-72
2023/09/09 04:58:58;;;;;;;27.67;17.08;;;;;;;;;;10452248;28;20020;-72
2023/09/09 05:03:58;;;;;;;27.17;15.07;;;;;;;;;;10451472;28;20039;-73
2023/09/09 05:08:58;;;;;;;27.47;17.47;;;;;;;;;;10452372;28;20125;-72
2023/09/09 05:13:59;;;;;;;28.08;16.98;;;;;;;;;;10449516;28;20024;-73
2023/09/09 05:18:59;;;;;;;24.23;15.85;;;;;;;;;;10450465;28;20357;-72
2023/09/09 05:23:59;;;;;;;28.30;14.50;;;;;;;;;;10452372;28;20040;-73
2023/09/09 05:29:01;;;;;;;19.83;13.93;;;;;;;;;;10450233;28;20075;-73
2023/09/09 05:34:01;;;;;;;21.45;14.57;;;;;;;;;;10446707;28;20061;-73
2023/09/09 05:39:03;;;;;;;23.02;12.43;;;;;;;;;;10451018;28;20040;-72
2023/09/09 05:44:03;;;;;;;19.25;11.30;;;;;;;;;;10445455;28;20227;-72
2023/09/09 05:49:04;;;;;;;19.25;12.38;;;;;;;;;;10444651;28;20031;-71
2023/09/09 05:54:04;;;;;;;21.73;11.23;;;;;;;;;;10442688;28;20044;-70
2023/09/09 05:59:07;;;;;;;18.27;11.23;;;;;;;;;;10444427;28;20340;-70
2023/09/09 06:04:08;;;;;;;17.27;10.23;;;;;;;;;;10443400;28;20064;-86
2023/09/09 06:09:08;;;;;;;16.80;9.15;;;;;;;;;;10444042;28;20027;-69
2023/09/09 06:14:09;;;;;;;12.87;9.07;;;;;;;;;;10444822;28;20032;-68
2023/09/09 06:19:09;;;;;;;14.55;9.25;;;;;;;;;;10441204;28;20029;-68
2023/09/09 06:24:12;;;;;;;16.85;10.48;;;;;;;;;;10444175;28;20087;-68
2023/09/09 06:29:12;;;;;;;19.05;10.63;;;;;;;;;;10440976;28;20024;-69
2023/09/09 06:34:12;;;;;;;18.45;10.82;;;;;;;;;;10441506;28;20426;-68
2023/09/09 06:39:13;;;;;;;18.60;10.82;;;;;;;;;;10440528;28;20036;-69
2023/09/09 06:44:13;;;;;;;17.15;9.98;;;;;;;;;;10442860;28;20064;-69
2023/09/09 06:49:13;;;;;;;14.48;9.70;;;;;;;;;;10443716;28;20021;-73
2023/09/09 06:54:13;;;;;;;24.55;9.52;;;;;;;;;;10442671;28;20048;-72
2023/09/09 06:59:14;;;;;;;20.77;9.20;;;;;;;;;;10442413;28;20030;-73
2023/09/09 07:04:14;;;;;;;18.70;9.20;;;;;;;;;;10439955;28;20380;-75
2023/09/09 07:09:15;;;;;;;14.02;9.00;;;;;;;;;;10442879;28;20087;-73
2023/09/09 07:14:15;;;;;;;17.02;7.90;;;;;;;;;;10440896;28;20021;-76
2023/09/09 07:19:15;;;;;;;11.73;6.10;;;;;;;;;;10441276;28;20288;-74
2023/09/09 07:24:15;;;;;;;11.30;5.53;;;;;;;;;;10440915;28;20052;-71
2023/09/09 07:29:16;;;;;;;16.52;5.03;;;;;;;;;;10441841;28;20025;-72
2023/09/09 07:34:16;;;;;;;11.65;3.88;;;;;;;;;;10438074;28;20040;-70
2023/09/09 07:39:16;;;;;;;8.98;3.55;;;;;;;;;;10442063;28;20029;-75
2023/09/09 07:44:16;;;;;;;9.80;2.88;;;;;;;;;;10447026;28;20329;-76
2023/09/09 07:49:17;;;;;;;5.90;2.08;;;;;;;;;;10444722;28;20313;-73
2023/09/09 07:54:18;;;;;;;5.60;3.00;;;;;;;;;;10426418;23;20564;-80
2023/09/09 07:59:18;;;;;;;6.80;2.70;;;;;;;;;;10364367;28;20071;-78
2023/09/09 08:04:18;;;;;;;5.03;2.00;;;;;;;;;;10370599;28;20037;-81
2023/09/09 08:09:20;;;;;;;4.72;1.85;;;;;;;;;;10364295;28;20021;-80
2023/09/09 08:14:20;;;;;;;6.05;1.60;;;;;;;;;;10379894;28;20464;-82
2023/09/09 08:19:21;;;;;;;4.90;1.98;;;;;;;;;;10365657;28;20018;-82
2023/09/09 08:24:21;;;;;;;4.63;1.67;;;;;;;;;;10368176;28;20033;-82
2023/09/09 08:29:22;;;;;;;4.43;1.40;;;;;;;;;;10355258;28;20029;-78
2023/09/09 08:34:22;;;;;;;3.87;1.53;;;;;;;;;;10386184;28;20061;-84
2023/09/09 08:39:24;;;;;;;13.15;1.90;;;;;;;;;;10384266;28;20387;-82
2023/09/09 08:44:25;;;;;;;4.55;1.80;;;;;;;;;;10387021;28;20025;-77
2023/09/09 08:49:27;;;;;;;4.35;1.40;;;;;;;;;;10366852;28;20051;-81
2023/09/09 08:54:28;;;;;;;3.40;1.83;;;;;;;;;;10386542;28;20069;-78
2023/09/09 08:59:30;;;;;;;7.80;1.92;;;;;;;;;;10371452;28;20108;-79
2023/09/09 09:04:31;;;;;;;5.53;1.60;;;;;;;;;;10375602;28;20108;-74
2023/09/09 09:09:32;;;;;;;4.68;1.98;;;;;;;;;;10375970;28;20080;-81
2023/09/09 09:14:32;;;;;;;5.60;1.63;;;;;;;;;;10370341;28;20095;-81
2023/09/09 09:19:32;;;;;;;3.40;2.10;;;;;;;;;;10369989;28;20600;-80
2023/09/09 09:24:40;;;;;;;4.20;2.30;;;;;;;;;;10394506;28;20017;-81
2023/09/09 09:29:42;;;;;;;4.55;1.80;;;;;;;;;;10369905;28;20021;-80
2023/09/09 09:34:43;;;;;;;5.90;1.85;;;;;;;;;;10387727;28;20457;-75
2023/09/09 09:39:44;;;;;;;4.80;1.90;;;;;;;;;;10366553;28;20049;-76
2023/09/09 09:44:45;;;;;;;4.70;2.03;;;;;;;;;;10371549;28;20021;-84
2023/09/09 09:49:45;;;;;;;5.55;2.17;;;;;;;;;;10369685;28;20026;-79
2023/09/09 09:54:49;;;;;;;6.63;1.73;;;;;;;;;;10389535;28;20076;-82
2023/09/09 09:59:51;;;;;;;2.87;1.53;;;;;;;;;;10386480;28;20029;-80
2023/09/09 10:04:51;;;;;;;1.83;1.15;;;;;;;;;;10402966;28;20269;-81
2023/09/09 10:10:00;;;;;;;2.30;1.15;;;;;;;;;;10383256;28;20080;-83
2023/09/09 10:15:02;;;;;;;4.32;1.40;;;;;;;;;;10373542;28;20048;-84
2023/09/09 10:20:05;;;;;;;4.25;1.10;;;;;;;;;;10385228;28;20021;-81
2023/09/09 10:25:10;;;;;;;4.05;1.00;;;;;;;;;;10386973;28;20057;-85
2023/09/09 10:30:10;;;;;;;2.90;1.10;;;;;;;;;;10375799;28;20071;-81
2023/09/09 10:35:11;;;;;;;3.65;1.00;;;;;;;;;;10387365;28;20555;-83
2023/09/09 10:40:13;;;;;;;4.80;1.00;;;;;;;;;;10374576;28;20032;-81
2023/09/09 10:45:23;;;;;;;4.25;1.02;;;;;;;;;;10352402;28;20083;-80
2023/09/09 10:50:38;;;;;;;2.58;0.90;;;;;;;;;;10386160;28;20024;-78
2023/09/09 10:55:39;;;;;;;3.30;0.70;;;;;;;;;;10386790;28;20057;-78
2023/09/09 11:00:41;;;;;;;5.60;0.90;;;;;;;;;;10395305;28;20033;-75
2023/09/09 11:06:02;;;;;;;2.13;1.15;;;;;;;;;;10364628;28;20049;-81
2023/09/09 11:11:08;;;;;;;1.35;0.88;;;;;;;;;;10382812;28;20058;-78
2023/09/09 11:16:22;;;;;;;3.25;1.02;;;;;;;;;;10365292;28;20040;-81
2023/09/09 11:21:23;;;;;;;2.75;1.00;;;;;;;;;;10355133;28;20037;-76
2023/09/09 11:26:24;;;;;;;4.63;1.10;;;;;;;;;;10368646;28;20504;-81
2023/09/09 11:31:26;;;;;;;4.05;0.82;;;;;;;;;;10392274;28;20085;-76
2023/09/09 11:36:27;;;;;;;4.55;1.25;;;;;;;;;;10374364;28;20037;-73
2023/09/09 11:41:28;;;;;;;2.80;1.40;;;;;;;;;;10383810;28;20633;-77
2023/09/09 11:46:39;;;;;;;8.27;1.48;;;;;;;;;;10372496;28;20026;-79
2023/09/09 11:51:39;;;;;;;3.28;1.85;;;;;;;;;;10367264;28;20124;-77
2023/09/09 11:56:43;;;;;;;2.33;1.20;;;;;;;;;;10351611;28;20025;-80
2023/09/09 12:01:44;;;;;;;3.28;1.08;;;;;;;;;;10364909;28;20021;-84
2023/09/09 12:06:49;;;;;;;2.40;1.27;;;;;;;;;;10384779;28;20025;-84
2023/09/09 12:11:52;;;;;;;6.22;2.00;;;;;;;;;;10387763;28;20021;-86
2023/09/09 12:16:52;;;;;;;4.78;2.28;;;;;;;;;;10377750;28;20060;-83
2023/09/09 12:21:53;;;;;;;2.33;1.40;;;;;;;;;;10381611;28;20116;-78
2023/09/09 12:26:55;;;;;;;1.70;1.20;;;;;;;;;;10378166;28;20029;-79
2023/09/09 12:31:57;;;;;;;2.50;1.33;;;;;;;;;;10379768;28;20033;-82
2023/09/09 12:36:59;;;;;;;4.22;1.67;;;;;;;;;;10382566;28;20056;-82
2023/09/09 12:42:04;;;;;;;11.10;2.42;;;;;;;;;;10375245;28;20025;-82
2023/09/09 12:47:05;;;;;;;5.05;2.10;;;;;;;;;;10378607;28;20025;-73
2023/09/09 12:52:07;;;;;;;4.32;1.58;;;;;;;;;;10373625;28;20065;-80
2023/09/09 12:57:07;;;;;;;3.35;1.38;;;;;;;;;;10355468;28;20079;-79
2023/09/09 13:02:07;;;;;;;8.70;1.48;;;;;;;;;;10371841;28;20929;-76
2023/09/09 13:07:07;;;;;;;4.20;1.20;;;;;;;;;;10391335;28;20533;-80
2023/09/09 13:12:08;;;;;;;6.32;1.65;;;;;;;;;;10372013;28;20037;-82
2023/09/09 13:17:08;;;;;;;6.10;1.70;;;;;;;;;;10403107;28;20171;-83
2023/09/09 13:22:08;;;;;;;5.80;1.98;;;;;;;;;;10373124;28;20048;-82
2023/09/09 13:27:08;;;;;;;5.93;1.58;;;;;;;;;;10372787;28;20039;-77
2023/09/09 13:32:10;;;;;;;11.98;1.85;;;;;;;;;;10370862;28;20519;-82
2023/09/09 13:37:21;;;;;;;4.25;1.67;;;;;;;;;;10369886;28;20026;-80
2023/09/09 13:42:21;;;;;;;7.03;2.00;;;;;;;;;;10378128;28;20052;-78
2023/09/09 13:47:22;;;;;;;3.50;1.80;;;;;;;;;;10365782;28;20033;-76
2023/09/09 13:52:22;;;;;;;3.50;2.20;;;;;;;;;;10389257;28;20061;-83
2023/09/09 13:57:23;;;;;;;2.45;1.23;;;;;;;;;;10371510;28;20030;-80
2023/09/09 14:02:25;;;;;;;2.97;1.20;;;;;;;;;;10372171;28;20108;-76
2023/09/09 14:07:25;;;;;;;5.28;1.35;;;;;;;;;;10365728;28;20040;-85
2023/09/09 14:12:29;;;;;;;2.28;1.30;;;;;;;;;;10381132;28;20501;-79
2023/09/09 14:17:29;;;;;;;6.65;1.30;;;;;;;;;;10390026;28;20417;-81
2023/09/09 14:22:34;;;;;;;2.97;1.45;;;;;;;;;;10366028;28;20246;-76
2023/09/09 14:27:34;;;;;;;5.03;1.63;;;;;;;;;;10384299;28;20041;-79
2023/09/09 14:32:35;;;;;;;1.90;1.40;;;;;;;;;;10369879;28;20032;-82
2023/09/09 14:37:41;;;;;;;5.00;1.30;;;;;;;;;;10402866;23;20069;-81
2023/09/09 14:42:41;;;;;;;2.50;1.13;;;;;;;;;;10361308;28;20116;-79
2023/09/09 14:47:42;;;;;;;6.20;1.23;;;;;;;;;;10369520;28;20487;-72
2023/09/09 14:52:42;;;;;;;8.82;1.08;;;;;;;;;;10350001;28;20587;-83
2023/09/09 14:57:43;;;;;;;8.97;5.27;;;;;;;;;;10337087;28;20076;-81
2023/09/09 15:02:43;;;;;;;2.78;1.20;;;;;;;;;;10359387;28;20939;-82
2023/09/09 15:07:43;;;;;;;5.95;2.05;;;;;;;;;;10350818;28;20429;-79
2023/09/09 15:12:44;;;;;;;4.13;2.30;;;;;;;;;;10361729;28;20029;-73
2023/09/09 15:17:44;;;;;;;2.97;1.20;;;;;;;;;;10356191;28;20029;-81
2023/09/09 15:22:44;;;;;;;3.75;1.45;;;;;;;;;;10353172;28;20029;-76
2023/09/09 15:27:46;;;;;;;3.95;1.60;;;;;;;;;;10354511;28;20032;-82
2023/09/09 15:32:46;;;;;;;3.20;1.23;;;;;;;;;;10352241;28;20021;-77
2023/09/09 15:37:46;;;;;;;3.90;1.20;;;;;;;;;;10365471;28;20058;-74
2023/09/09 15:42:47;;;;;;;3.20;1.30;;;;;;;;;;10372127;28;20013;-84
2023/09/09 15:47:47;;;;;;;4.47;1.40;;;;;;;;;;10346697;28;20021;-84
2023/09/09 15:52:47;;;;;;;4.83;1.90;;;;;;;;;;10338287;28;20044;-76
2023/09/09 15:57:47;;;;;;;6.25;2.17;;;;;;;;;;10383354;28;20026;-75
2023/09/09 16:02:48;;;;;;;10.93;1.73;;;;;;;;;;10362690;28;20052;-79
2023/09/09 16:07:49;;;;;;;3.88;1.73;;;;;;;;;;10367681;28;20112;-78
2023/09/09 16:12:50;;;;;;;4.55;1.92;;;;;;;;;;10378651;28;20101;-80
2023/09/09 16:17:50;;;;;;;5.15;2.38;;;;;;;;;;10376369;28;20028;-74
2023/09/09 16:22:50;;;;;;;5.97;1.90;;;;;;;;;;10362827;28;20405;-74
2023/09/09 16:27:50;;;;;;;5.82;1.98;;;;;;;;;;10354628;28;20837;-76
2023/09/09 16:32:51;;;;;;;6.22;1.92;;;;;;;;;;10352774;28;20589;-79
2023/09/09 16:37:52;;;;;;;6.80;2.20;;;;;;;;;;10366781;28;20054;-82
2023/09/09 16:42:53;;;;;;;4.18;1.92;;;;;;;;;;10380776;28;20032;-79
2023/09/09 16:47:53;;;;;;;6.07;1.70;;;;;;;;;;10365237;28;20413;-75
2023/09/09 16:52:53;;;;;;;5.85;2.75;;;;;;;;;;10359207;28;20524;-76
2023/09/09 16:57:55;;;;;;;10.68;2.13;;;;;;;;;;10358358;28;20436;-76
2023/09/09 17:02:55;;;;;;;8.00;2.80;;;;;;;;;;10341791;28;20064;-82
2023/09/09 17:07:56;;;;;;;9.05;3.17;;;;;;;;;;10376172;28;20564;-83
2023/09/09 17:12:59;;;;;;;4.17;2.73;;;;;;;;;;10357546;28;20026;-81
2023/09/09 17:17:59;;;;;;;3.92;2.30;;;;;;;;;;10366379;28;20281;-82
2023/09/09 17:23:00;;;;;;;5.35;2.10;;;;;;;;;;10368689;28;20425;-80
2023/09/09 17:28:00;;;;;;;4.33;2.90;;;;;;;;;;10363168;28;20497;-74
2023/09/09 17:33:00;;;;;;;10.88;3.65;;;;;;;;;;10358648;28;20669;-80
2023/09/09 17:38:01;;;;;;;6.15;2.90;;;;;;;;;;10357968;28;20608;-76
2023/09/09 17:43:01;;;;;;;7.72;2.53;;;;;;;;;;10363709;28;20079;-84
2023/09/09 17:48:01;;;;;;;6.82;3.45;;;;;;;;;;10348797;28;20072;-76
2023/09/09 17:53:01;;;;;;;10.13;5.40;;;;;;;;;;10355562;28;20022;-83
2023/09/09 17:58:02;;;;;;;7.90;3.10;;;;;;;;;;10380660;28;20380;-75
2023/09/09 18:03:06;;;;;;;8.90;5.23;;;;;;;;;;10350978;28;20022;-78
2023/09/09 18:08:08;;;;;;;6.97;3.25;;;;;;;;;;10369596;28;20026;-75
2023/09/09 18:13:08;;;;;;;9.52;3.92;;;;;;;;;;10376684;28;20025;-76
2023/09/09 18:18:10;;;;;;;14.82;4.10;;;;;;;;;;10347686;28;20101;-75
2023/09/09 18:23:10;;;;;;;14.27;4.03;;;;;;;;;;10349714;28;20427;-79
2023/09/09 18:28:10;;;;;;;9.53;3.57;;;;;;;;;;10357126;28;20037;-76
2023/09/09 18:33:11;;;;;;;11.73;4.43;;;;;;;;;;10357137;28;20041;-78
2023/09/09 18:38:13;;;;;;;15.95;4.70;;;;;;;;;;10355440;28;20041;-76
2023/09/09 18:43:13;;;;;;;14.93;4.70;;;;;;;;;;10373427;28;20549;-75
2023/09/09 18:48:18;;;;;;;8.48;4.28;;;;;;;;;;10361632;28;20075;-78
2023/09/09 18:53:19;;;;;;;14.30;4.07;;;;;;;;;;10355833;28;20013;-77
2023/09/09 18:58:21;;;;;;;5.40;3.55;;;;;;;;;;10361329;28;20033;-74
2023/09/09 19:03:27;;;;;;;5.97;3.30;;;;;;;;;;10374442;28;20029;-70
2023/09/09 19:08:30;;;;;;;7.68;3.33;;;;;;;;;;10380911;28;20046;-73
2023/09/09 19:13:31;;;;;;;7.97;3.70;;;;;;;;;;10382370;28;20017;-78
2023/09/09 19:18:32;;;;;;;11.27;4.47;;;;;;;;;;10362169;28;20021;-72
2023/09/09 19:23:32;;;;;;;7.20;3.75;;;;;;;;;;10370677;28;20740;-75
2023/09/09 19:28:33;;;;;;;8.85;3.67;;;;;;;;;;10336415;28;20040;-74
2023/09/09 19:33:33;;;;;;;7.53;2.83;;;;;;;;;;10348543;28;20087;-80
2023/09/09 19:38:34;;;;;;;9.07;3.33;;;;;;;;;;10340637;28;20537;-76
2023/09/09 19:43:34;;;;;;;6.03;2.23;;;;;;;;;;10347009;28;20018;-76
2023/09/09 19:48:35;;;;;;;8.25;2.67;;;;;;;;;;10349176;28;20089;-74
2023/09/09 19:53:35;;;;;;;7.47;2.50;;;;;;;;;;10345291;28;20033;-82
2023/09/09 19:58:37;;;;;;;5.43;2.97;;;;;;;;;;10347506;28;20030;-74
2023/09/09 20:03:38;;;;;;;5.50;2.53;;;;;;;;;;10362138;28;20037;-80
2023/09/09 20:08:38;;;;;;;5.50;2.90;;;;;;;;;;10344227;28;20340;-78
2023/09/09 20:13:40;;;;;;;11.27;2.78;;;;;;;;;;10340209;28;20315;-79
2023/09/09 20:18:40;;;;;;;5.75;3.30;;;;;;;;;;10363214;28;20518;-76
2023/09/09 20:23:40;;;;;;;4.20;2.72;;;;;;;;;;10359613;28;20547;-83
2023/09/09 20:28:40;;;;;;;5.23;2.20;;;;;;;;;;10335118;28;20037;-80
2023/09/09 20:33:42;;;;;;;3.95;2.78;;;;;;;;;;10368942;28;20858;-78
2023/09/09 20:38:44;;;;;;;12.52;3.35;;;;;;;;;;10376632;28;20082;-76
2023/09/09 20:43:45;;;;;;;9.93;2.10;;;;;;;;;;10358843;28;20085;-78
2023/09/09 20:48:54;;;;;;;4.40;1.95;;;;;;;;;;10383451;28;20309;-84
2023/09/09 20:53:55;;;;;;;7.18;2.00;;;;;;;;;;10393480;28;20033;-81
2023/09/09 20:58:57;;;;;;;7.75;2.30;;;;;;;;;;10353315;28;21535;-80
2023/09/09 21:03:57;;;;;;;6.93;2.63;;;;;;;;;;10354934;28;20908;-74
2023/09/09 21:08:57;;;;;;;6.15;2.05;;;;;;;;;;10352327;28;20022;-80
2023/09/09 21:13:58;;;;;;;5.78;2.75;;;;;;;;;;10390637;28;20029;-80
2023/09/09 21:18:58;;;;;;;4.60;2.13;;;;;;;;;;10390655;28;20029;-80
2023/09/09 21:23:59;;;;;;;7.17;2.17;;;;;;;;;;10411490;28;20021;-79
2023/09/09 21:28:59;;;;;;;2.83;1.67;;;;;;;;;;10431285;28;20511;-76
2023/09/09 21:33:59;;;;;;;3.95;1.55;;;;;;;;;;10413593;28;20044;-80
2023/09/09 21:39:00;;;;;;;6.30;2.08;;;;;;;;;;10403701;28;20044;-75
2023/09/09 21:44:00;;;;;;;2.88;1.45;;;;;;;;;;10414967;28;20036;-77
2023/09/09 21:49:01;;;;;;;3.75;1.92;;;;;;;;;;10444303;28;20484;-75
2023/09/09 21:54:01;;;;;;;3.55;1.60;;;;;;;;;;10469904;28;20140;-73
2023/09/09 21:59:02;;;;;;;3.45;1.50;;;;;;;;;;10392567;28;20025;-74
2023/09/09 22:04:02;;;;;;;2.75;1.60;;;;;;;;;;10407027;28;20072;-75
2023/09/09 22:09:04;;;;;;;3.80;1.57;;;;;;;;;;10414592;28;20044;-71
2023/09/09 22:14:04;;;;;;;4.75;1.45;;;;;;;;;;10395813;28;20288;-75
2023/09/09 22:19:05;;;;;;;4.45;1.95;;;;;;;;;;10426936;28;20519;-79
2023/09/09 22:24:07;;;;;;;4.30;1.98;;;;;;;;;;10400599;28;20040;-80
2023/09/09 22:29:07;;;;;;;3.60;1.95;;;;;;;;;;10391140;28;20056;-81
2023/09/09 22:34:07;;;;;;;4.83;1.90;;;;;;;;;;10413137;28;20117;-74
2023/09/09 22:39:09;;;;;;;5.83;1.90;;;;;;;;;;10429168;28;20578;-75
2023/09/09 22:44:09;;;;;;;2.65;1.70;;;;;;;;;;10427092;28;20024;-80
2023/09/09 22:49:09;;;;;;;4.80;1.77;;;;;;;;;;10375924;28;20038;-75
2023/09/09 22:54:10;;;;;;;3.08;1.60;;;;;;;;;;10388421;28;20128;-83
2023/09/09 22:59:10;;;;;;;5.10;2.08;;;;;;;;;;10422641;28;20409;-74
2023/09/09 23:04:10;;;;;;;3.67;1.80;;;;;;;;;;10422673;28;20021;-80
2023/09/09 23:09:10;;;;;;;4.43;1.63;;;;;;;;;;10386324;28;20025;-79
2023/09/09 23:14:12;;;;;;;5.97;2.10;;;;;;;;;;10407389;28;20108;-78
2023/09/09 23:19:12;;;;;;;5.78;1.70;;;;;;;;;;10409799;28;20027;-82
2023/09/09 23:24:13;;;;;;;3.57;1.53;;;;;;;;;;10402688;28;20405;-73
2023/09/09 23:29:15;;;;;;;4.53;1.67;;;;;;;;;;10428398;23;20405;-75
2023/09/09 23:34:15;;;;;;;7.53;1.55;;;;;;;;;;10410029;28;20043;-74
2023/09/09 23:39:16;;;;;;;2.17;1.48;;;;;;;;;;10416578;28;20071;-74
2023/09/09 23:44:17;;;;;;;6.60;2.13;;;;;;;;;;10416135;28;20057;-74
2023/09/09 23:49:17;;;;;;;3.87;1.50;;;;;;;;;;10416397;28;20068;-74
2023/09/09 23:54:17;;;;;;;3.08;1.52;;;;;;;;;;10398458;28;20064;-74
2023/09/09 23:59:18;;;;;;;3.08;1.63;;;;;;;;;;10416111;28;20450;-74
